X  Kiinni Metar Aviation säätiedot     EHRD Rotterdam The Hague Airport
Lämpötila
16°C Lämpötila
16°C Kastepiste
100% Kosteus



Tuuli
5 KM/T
3 MPH
1 M/S
3 KTS



150°
EEI
Nykyiset olosuhteet

Kevyt Sade, Sade Kevyt Sade, Sade
Paine 1010.92 (hPa) - 29.85 (inHg)
Näkyvyys 6.2 (maili) - 10 (km)
Lentokenttä
Lentokentän koodi EHRD

Sijainti: Rotterdam The Hague Airport
Etäisyys: 14 (km)

Metar:
EHRD 252225Z AUTO 15003KT 9999 -RA FEW007 BKN008 BKN011 FEW015CB 16/16 Q1011 REDZRA BECMG 9999 NSW SCT009

Aika: 26-06-2022 00:25 CEST